createdAt,value
2017-10-30T00:06:11.662Z,96.50
2017-10-30T00:08:44.847Z,96.50
2017-10-30T00:11:17.310Z,96.50
2017-10-30T00:13:49.490Z,96.50
2017-10-30T00:16:28.538Z,96.30
2017-10-30T00:19:16.872Z,96.30
2017-10-30T00:22:23.946Z,96.60
2017-10-30T00:28:51.474Z,96.70
2017-10-30T00:32:19.751Z,97.10
2017-10-30T00:35:06.863Z,97.40
2017-10-30T00:48:20.546Z,96.90
2017-10-30T00:50:51.472Z,97.20
2017-10-30T01:09:26.014Z,96.80
2017-10-30T01:36:46.472Z,96.90
2017-10-30T01:39:21.494Z,96.80
2017-10-30T01:42:04.424Z,97.00
2017-10-30T01:57:15.627Z,97.50
2017-10-30T02:02:45.229Z,97.30
2017-10-30T02:05:56.097Z,97.40
2017-10-30T02:11:28.936Z,97.70
2017-10-30T02:25:25.826Z,97.60
2017-10-30T02:27:57.712Z,97.80
2017-10-30T02:30:29.447Z,97.80
2017-10-30T02:33:01.523Z,97.90
2017-10-30T02:35:34.487Z,97.90
2017-10-30T02:38:07.023Z,97.70
2017-10-30T02:40:39.467Z,97.60
2017-10-30T02:43:11.467Z,97.50
2017-10-30T02:45:45.653Z,97.70
2017-10-30T02:48:18.339Z,97.60
2017-10-30T02:50:51.665Z,97.70
2017-10-30T02:53:23.345Z,97.80
2017-10-30T02:55:54.849Z,97.80
2017-10-30T02:58:27.160Z,97.80
2017-10-30T03:00:59.605Z,98.10
2017-10-30T03:03:31.562Z,97.80
2017-10-30T03:06:04.244Z,97.80
2017-10-30T03:08:36.511Z,97.80
2017-10-30T03:11:08.519Z,97.80
2017-10-30T03:13:41.387Z,97.70
2017-10-30T03:16:13.694Z,97.80
2017-10-30T03:18:45.374Z,97.80
2017-10-30T03:21:17.445Z,97.90
2017-10-30T03:23:49.636Z,98.20
2017-10-30T03:26:21.372Z,98.20
2017-10-30T03:28:53.965Z,98.20
2017-10-30T03:31:29.061Z,98.50
2017-10-30T03:34:01.455Z,99.10
2017-10-30T03:36:33.955Z,98.80
2017-10-30T03:39:08.651Z,98.90
2017-10-30T03:41:40.867Z,98.90
2017-10-30T03:44:13.320Z,98.80
2017-10-30T03:46:46.640Z,99.00
2017-10-30T03:49:18.938Z,99.10
2017-10-30T03:51:52.618Z,98.80
2017-10-30T03:54:24.513Z,98.90
2017-10-30T03:56:57.028Z,99.00
2017-10-30T03:59:32.330Z,99.00
2017-10-30T04:02:09.155Z,99.00
2017-10-30T04:07:22.058Z,98.70
2017-10-30T04:09:56.082Z,98.50
2017-10-30T04:12:28.006Z,98.70
2017-10-30T04:15:00.961Z,98.90
2017-10-30T04:17:32.785Z,98.70
2017-10-30T04:20:05.585Z,98.30
2017-10-30T04:22:37.581Z,98.30
2017-10-30T04:25:09.900Z,98.40
2017-10-30T04:27:42.387Z,98.50
2017-10-30T04:30:35.581Z,98.40
2017-10-30T04:33:11.175Z,98.50
2017-10-30T04:35:42.451Z,98.50
2017-10-30T04:38:15.448Z,98.60
2017-10-30T04:40:48.447Z,99.10
2017-10-30T04:43:20.008Z,98.80
2017-10-30T04:46:12.488Z,98.90
2017-10-30T04:48:48.374Z,98.90
2017-10-30T04:51:22.504Z,99.00
2017-10-30T04:53:55.313Z,98.80
2017-10-30T04:56:26.784Z,98.80
2017-10-30T04:59:00.043Z,99.00
2017-10-30T05:01:32.984Z,98.70
2017-10-30T05:04:04.818Z,98.70
2017-10-30T05:07:19.707Z,98.40
2017-10-30T05:10:14.383Z,98.80
2017-10-30T05:13:37.583Z,98.90
2017-10-30T05:16:20.416Z,98.80
2017-10-30T05:19:05.519Z,99.10
2017-10-30T05:21:38.493Z,99.00
2017-10-30T05:24:09.870Z,99.00
2017-10-30T05:26:41.483Z,99.10
2017-10-30T05:29:12.850Z,99.10
2017-10-30T05:31:45.438Z,99.00
2017-10-30T05:34:17.298Z,99.00
2017-10-30T05:36:49.267Z,98.90
2017-10-30T05:39:20.690Z,98.80
2017-10-30T05:41:52.603Z,98.90
2017-10-30T05:44:30.678Z,99.00
2017-10-30T05:47:07.600Z,98.90
2017-10-30T05:49:43.771Z,98.70
2017-10-30T05:52:26.052Z,98.60
2017-10-30T05:56:00.697Z,98.60
2017-10-30T05:58:41.829Z,99.00
2017-10-30T06:01:13.545Z,98.90
2017-10-30T06:03:45.032Z,98.90
2017-10-30T06:06:16.530Z,98.90
2017-10-30T06:08:48.459Z,98.90
2017-10-30T06:11:22.856Z,99.10
2017-10-30T06:16:05.772Z,99.00
2017-10-30T06:20:41.266Z,98.90
2017-10-30T06:23:18.264Z,99.00
2017-10-30T06:25:49.797Z,99.10
2017-10-30T06:28:21.593Z,99.20
2017-10-30T06:30:55.427Z,99.40
2017-10-30T06:33:27.624Z,99.40
2017-10-30T06:36:10.256Z,99.30
2017-10-30T06:38:41.700Z,99.60
2017-10-30T06:41:14.507Z,99.40
2017-10-30T06:43:45.549Z,99.50
2017-10-30T06:46:17.567Z,99.50
2017-10-30T06:48:56.904Z,99.60
2017-10-30T06:51:28.671Z,99.60
2017-10-30T06:54:00.212Z,99.60
2017-10-30T06:56:32.022Z,99.70
2017-10-30T06:59:03.748Z,99.50
2017-10-30T07:01:36.921Z,99.50
2017-10-30T07:04:08.480Z,99.50
2017-10-30T07:06:40.558Z,99.60
2017-10-30T07:09:13.104Z,99.60
2017-10-30T07:11:46.731Z,99.70
2017-10-30T07:14:17.800Z,99.70
2017-10-30T07:16:49.100Z,99.50
2017-10-30T07:19:20.270Z,99.90
2017-10-30T07:21:51.496Z,99.90
2017-10-30T07:24:22.765Z,99.30
2017-10-30T07:26:54.270Z,99.10
2017-10-30T07:29:25.658Z,98.70
2017-10-30T07:32:05.303Z,98.90
2017-10-30T07:34:38.220Z,98.10
2017-10-30T07:37:10.996Z,97.50
2017-10-30T07:39:46.690Z,97.50
2017-10-30T07:42:18.608Z,97.70
2017-10-30T07:44:49.849Z,97.70
2017-10-30T07:47:22.268Z,97.50
2017-10-30T07:49:54.071Z,96.90
2017-10-30T07:52:26.788Z,96.20
2017-10-30T07:55:02.674Z,96.40
2017-10-30T07:57:35.105Z,94.50
2017-10-30T08:00:07.542Z,93.70
2017-10-30T08:02:39.846Z,93.60
2017-10-30T08:05:11.922Z,94.00
2017-10-30T08:07:44.085Z,94.30
2017-10-30T08:10:16.587Z,95.50
2017-10-30T08:12:48.133Z,95.50
2017-10-30T08:15:19.661Z,95.10
2017-10-30T08:17:51.040Z,95.10
2017-10-30T08:20:23.408Z,95.10
2017-10-30T08:22:54.547Z,95.10
2017-10-30T08:25:26.114Z,95.50
2017-10-30T08:27:58.277Z,95.40
2017-10-30T08:30:31.158Z,94.90
2017-10-30T08:33:03.256Z,95.50
2017-10-30T08:35:36.388Z,95.70
2017-10-30T08:38:11.002Z,95.70
2017-10-30T08:40:48.244Z,96.00
2017-10-30T08:43:21.646Z,96.00
2017-10-30T08:45:53.813Z,95.60
2017-10-30T08:48:26.622Z,95.00
2017-10-30T08:50:59.018Z,95.40
2017-10-30T08:53:31.065Z,95.00
2017-10-30T08:56:04.389Z,95.20
2017-10-30T08:58:37.016Z,95.30
2017-10-30T09:01:08.940Z,95.30
2017-10-30T09:03:42.627Z,95.20
2017-10-30T09:06:14.482Z,95.20
2017-10-30T09:08:47.835Z,95.30
2017-10-30T09:11:19.956Z,95.40
2017-10-30T09:13:53.453Z,95.50
2017-10-30T09:16:25.220Z,95.00
2017-10-30T09:18:58.330Z,96.40
2017-10-30T09:21:31.405Z,95.40
2017-10-30T09:24:03.657Z,92.70
2017-10-30T09:26:35.615Z,92.00
2017-10-30T09:29:07.507Z,93.10
2017-10-30T09:31:39.299Z,93.60
2017-10-30T09:34:11.657Z,92.90
2017-10-30T09:36:43.974Z,91.10
2017-10-30T09:39:15.807Z,91.20
2017-10-30T09:41:46.882Z,92.00
2017-10-30T09:44:19.651Z,92.10
2017-10-30T09:46:50.592Z,92.30
2017-10-30T09:49:21.595Z,90.90
2017-10-30T09:51:53.161Z,91.40
2017-10-30T09:54:24.291Z,91.40
2017-10-30T09:56:55.795Z,91.00
2017-10-30T09:59:26.940Z,93.70
2017-10-30T10:01:58.362Z,91.60
2017-10-30T10:04:30.070Z,91.00
2017-10-30T10:07:01.073Z,91.00
2017-10-30T10:09:32.855Z,87.10
2017-10-30T10:12:04.120Z,87.10
2017-10-30T10:14:35.304Z,88.50
2017-10-30T10:17:07.279Z,87.20
2017-10-30T10:19:40.356Z,83.00
2017-10-30T10:22:12.056Z,84.10
2017-10-30T10:24:43.222Z,83.90
2017-10-30T10:27:14.682Z,82.60
2017-10-30T10:29:46.354Z,81.50
2017-10-30T10:32:17.975Z,83.10
2017-10-30T10:34:48.850Z,81.60
2017-10-30T10:37:23.575Z,78.50
2017-10-30T10:39:54.571Z,78.60
2017-10-30T10:42:26.128Z,77.30
2017-10-30T10:44:57.258Z,79.80
2017-10-30T10:47:29.218Z,77.00
2017-10-30T10:50:02.012Z,80.70
2017-10-30T10:52:34.182Z,84.00
2017-10-30T10:55:05.122Z,83.50
2017-10-30T10:57:36.413Z,78.70
2017-10-30T11:00:07.555Z,78.80
2017-10-30T11:02:40.403Z,80.60
2017-10-30T11:05:11.296Z,80.20
2017-10-30T11:07:43.780Z,79.50
2017-10-30T11:10:16.087Z,79.30
2017-10-30T11:12:49.394Z,79.20
2017-10-30T11:15:21.079Z,80.00
2017-10-30T11:17:52.083Z,81.90
2017-10-30T11:20:23.524Z,82.30
2017-10-30T11:22:54.257Z,81.60
2017-10-30T11:25:25.061Z,82.90
2017-10-30T11:27:56.249Z,80.00
2017-10-30T11:30:27.017Z,79.10
2017-10-30T11:32:57.931Z,81.60
2017-10-30T11:35:28.812Z,80.70
2017-10-30T11:37:59.612Z,82.70
2017-10-30T11:40:41.671Z,82.70
2017-10-30T11:43:22.954Z,82.70
2017-10-30T11:45:57.251Z,82.90
2017-10-30T11:48:37.519Z,82.10
2017-10-30T11:51:18.759Z,80.10
2017-10-30T11:53:50.600Z,80.70
2017-10-30T11:56:22.756Z,81.90
2017-10-30T11:58:54.047Z,82.90
2017-10-30T12:01:25.211Z,84.30
2017-10-30T12:03:57.363Z,81.50
2017-10-30T12:06:29.008Z,81.40
2017-10-30T12:09:01.371Z,81.70
2017-10-30T12:11:34.305Z,81.70
2017-10-30T12:14:05.942Z,80.40
2017-10-30T12:16:36.907Z,81.50
2017-10-30T12:19:07.970Z,82.20
2017-10-30T12:21:39.532Z,83.00
2017-10-30T12:24:10.553Z,82.50
2017-10-30T12:26:42.794Z,81.50
2017-10-30T12:29:14.945Z,81.30
2017-10-30T12:31:45.837Z,81.20
2017-10-30T12:34:17.029Z,82.20
2017-10-30T12:36:47.801Z,81.80
2017-10-30T12:39:20.015Z,82.80
2017-10-30T12:41:52.492Z,83.60
2017-10-30T12:44:26.287Z,83.60
2017-10-30T12:46:58.104Z,84.30
2017-10-30T12:49:29.106Z,84.20
2017-10-30T12:51:59.876Z,84.80
2017-10-30T12:54:31.401Z,84.70
2017-10-30T12:57:04.262Z,85.00
2017-10-30T12:59:39.648Z,87.30
2017-10-30T13:02:11.108Z,86.80
2017-10-30T13:04:42.192Z,86.70
2017-10-30T13:07:14.204Z,84.70
2017-10-30T13:09:46.406Z,84.70
2017-10-30T13:12:18.531Z,86.50
2017-10-30T13:14:50.373Z,86.40
2017-10-30T13:17:35.348Z,86.40
2017-10-30T13:20:07.107Z,86.10
2017-10-30T13:22:38.894Z,85.80
2017-10-30T13:25:09.838Z,84.80
2017-10-30T13:27:41.392Z,85.10
2017-10-30T13:30:12.249Z,84.50
2017-10-30T13:32:44.188Z,82.40
2017-10-30T13:35:17.282Z,79.90
2017-10-30T13:37:48.168Z,80.50
2017-10-30T13:40:19.468Z,79.70
2017-10-30T13:42:50.821Z,79.40
2017-10-30T13:45:21.650Z,81.40
2017-10-30T13:47:52.844Z,79.00
2017-10-30T13:50:23.816Z,81.60
2017-10-30T13:52:54.778Z,80.00
2017-10-30T13:55:25.826Z,78.30
2017-10-30T13:57:56.995Z,79.40
2017-10-30T14:00:28.498Z,80.80
2017-10-30T14:02:59.391Z,81.00
2017-10-30T14:05:30.235Z,83.20
2017-10-30T14:08:01.053Z,85.40
2017-10-30T14:10:32.633Z,85.30
2017-10-30T14:13:03.845Z,84.60
2017-10-30T14:15:36.567Z,84.90
2017-10-30T14:18:09.920Z,84.20
2017-10-30T14:20:41.147Z,87.70
2017-10-30T14:23:12.216Z,90.60
2017-10-30T14:25:43.296Z,92.30
2017-10-30T14:28:14.611Z,93.30
2017-10-30T14:30:56.534Z,93.30
2017-10-30T14:33:28.503Z,94.00
2017-10-30T14:36:08.251Z,93.40
2017-10-30T14:38:48.415Z,93.40
2017-10-30T14:41:21.777Z,93.70
2017-10-30T14:43:54.105Z,93.60
2017-10-30T14:46:25.966Z,93.50
2017-10-30T14:48:56.924Z,93.50
2017-10-30T14:51:28.851Z,93.50
2017-10-30T14:54:03.176Z,93.90
2017-10-30T14:56:36.052Z,93.50
2017-10-30T14:59:07.176Z,93.50
2017-10-30T15:01:40.055Z,94.10
2017-10-30T15:04:13.197Z,94.40
2017-10-30T15:06:44.173Z,94.40
2017-10-30T15:09:16.391Z,94.40
2017-10-30T15:11:49.489Z,94.70
2017-10-30T15:14:20.690Z,94.60
2017-10-30T15:16:52.746Z,95.00
2017-10-30T15:19:24.336Z,95.00
2017-10-30T15:21:56.526Z,95.10
2017-10-30T15:24:28.117Z,95.10
2017-10-30T15:26:59.074Z,95.10
2017-10-30T15:29:30.312Z,95.20
2017-10-30T15:32:02.188Z,94.60
2017-10-30T15:34:35.223Z,94.50
2017-10-30T15:37:06.763Z,94.80
2017-10-30T15:39:39.501Z,95.00
2017-10-30T15:42:10.545Z,95.00
2017-10-30T15:44:42.698Z,94.90
2017-10-30T15:47:14.164Z,95.40
2017-10-30T15:49:45.523Z,95.50
2017-10-30T15:52:17.586Z,95.20
2017-10-30T15:54:48.790Z,95.20
2017-10-30T15:57:20.023Z,94.90
2017-10-30T15:59:50.884Z,95.40
2017-10-30T16:02:24.140Z,95.20
2017-10-30T16:04:55.494Z,95.60
2017-10-30T16:07:26.953Z,95.10
2017-10-30T16:09:57.952Z,94.80
2017-10-30T16:12:28.985Z,95.20
2017-10-30T16:15:00.480Z,94.40
2017-10-30T16:17:31.566Z,94.50
2017-10-30T16:20:02.652Z,94.60
2017-10-30T16:22:34.608Z,95.50
2017-10-30T16:25:07.232Z,95.50
2017-10-30T16:27:41.591Z,95.50
2017-10-30T16:30:13.336Z,95.70
2017-10-30T16:32:45.352Z,95.70
2017-10-30T16:35:17.084Z,95.90
2017-10-30T16:37:49.554Z,95.90
2017-10-30T16:40:20.667Z,95.80
2017-10-30T16:42:52.015Z,95.50
2017-10-30T16:45:23.138Z,95.70
2017-10-30T16:47:54.187Z,95.50
2017-10-30T16:50:27.615Z,95.60
2017-10-30T16:52:58.631Z,95.50
2017-10-30T16:55:29.701Z,95.40
2017-10-30T16:58:00.635Z,95.60
2017-10-30T17:00:31.795Z,95.90
2017-10-30T17:03:03.051Z,95.90
2017-10-30T17:05:35.096Z,95.80
2017-10-30T17:08:06.837Z,95.90
2017-10-30T17:10:38.732Z,95.60
2017-10-30T17:13:10.754Z,95.40
2017-10-30T17:15:43.327Z,95.60
2017-10-30T17:18:14.413Z,95.60
2017-10-30T17:20:45.892Z,95.40
2017-10-30T17:23:17.295Z,95.50
2017-10-30T17:25:48.189Z,95.30
2017-10-30T17:28:20.117Z,95.30
2017-10-30T17:30:52.045Z,95.30
2017-10-30T17:33:24.089Z,95.50
2017-10-30T17:35:55.758Z,95.40
2017-10-30T17:38:27.266Z,95.80
2017-10-30T17:40:59.278Z,95.50
2017-10-30T17:43:31.137Z,95.40
2017-10-30T17:46:03.109Z,95.40
2017-10-30T17:48:34.964Z,95.40
2017-10-30T17:51:07.300Z,95.40
2017-10-30T17:53:38.588Z,95.40
2017-10-30T17:56:11.498Z,95.30
2017-10-30T17:58:42.712Z,95.30
2017-10-30T18:01:15.975Z,95.80
2017-10-30T18:03:49.359Z,95.80
2017-10-30T18:06:21.058Z,95.60
2017-10-30T18:08:53.832Z,95.90
2017-10-30T18:11:25.871Z,95.50
2017-10-30T18:13:57.680Z,95.50
2017-10-30T18:16:30.696Z,95.30
2017-10-30T18:19:05.279Z,95.40
2017-10-30T18:21:37.860Z,95.20
2017-10-30T18:24:17.501Z,94.80
2017-10-30T18:26:51.420Z,95.10
2017-10-30T18:29:24.389Z,95.20
2017-10-30T18:31:57.289Z,95.20
2017-10-30T18:34:29.395Z,95.20
2017-10-30T18:37:10.534Z,95.10
2017-10-30T18:39:47.772Z,95.60
2017-10-30T18:42:27.084Z,95.50
2017-10-30T18:45:13.838Z,95.60
2017-10-30T18:47:54.706Z,95.40
2017-10-30T18:50:32.219Z,95.40
2017-10-30T18:53:10.402Z,95.30
2017-10-30T18:55:47.471Z,95.20
2017-10-30T18:58:26.919Z,95.30
2017-10-30T19:01:05.313Z,95.20
2017-10-30T19:03:48.036Z,95.20
2017-10-30T19:06:25.488Z,95.70
2017-10-30T19:09:11.204Z,95.90
2017-10-30T19:11:53.889Z,95.80
2017-10-30T19:14:36.575Z,95.80
2017-10-30T19:17:13.572Z,95.50
2017-10-30T19:19:53.452Z,95.40
2017-10-30T19:22:27.672Z,95.30
2017-10-30T19:25:00.520Z,95.60
2017-10-30T19:27:36.580Z,95.60
2017-10-30T19:33:07.253Z,95.80
2017-10-30T19:35:47.131Z,95.70
2017-10-30T19:38:29.519Z,95.60
2017-10-30T19:41:17.207Z,95.80
2017-10-30T19:43:56.788Z,95.40
2017-10-30T19:46:36.758Z,95.80
2017-10-30T19:49:16.189Z,95.80
2017-10-30T19:51:52.373Z,95.80
2017-10-30T19:54:27.305Z,95.60
2017-10-30T19:57:05.031Z,95.60
2017-10-30T19:59:41.194Z,95.50
2017-10-30T20:02:20.531Z,95.50
2017-10-30T20:05:02.430Z,95.60
2017-10-30T20:07:57.187Z,95.70
2017-10-30T20:12:44.768Z,95.70
2017-10-30T20:15:27.730Z,95.70
2017-10-30T20:18:09.481Z,95.90
2017-10-30T20:20:46.815Z,95.90
2017-10-30T20:23:23.681Z,95.80
2017-10-30T20:28:44.027Z,96.00
2017-10-30T20:31:23.521Z,96.00
2017-10-30T20:33:59.956Z,96.20
2017-10-30T20:36:39.377Z,96.70
2017-10-30T20:39:17.667Z,96.40
2017-10-30T20:41:56.103Z,96.40
2017-10-30T20:44:34.934Z,96.10
2017-10-30T20:47:14.309Z,96.10
2017-10-30T20:49:51.302Z,96.10
2017-10-30T20:52:33.360Z,96.30
2017-10-30T20:55:12.106Z,96.40
2017-10-30T20:57:50.529Z,96.60
2017-10-30T21:00:26.072Z,97.30
2017-10-30T21:03:05.510Z,97.90
2017-10-30T21:05:42.120Z,97.70
2017-10-30T21:08:22.459Z,97.80
2017-10-30T21:10:59.643Z,97.40
2017-10-30T21:16:17.119Z,97.30
2017-10-30T21:18:55.290Z,97.10
2017-10-30T21:21:32.063Z,97.20
2017-10-30T21:24:11.213Z,96.90
2017-10-30T21:26:49.342Z,96.90
2017-10-30T21:29:28.657Z,96.90
2017-10-30T21:32:07.807Z,96.80
2017-10-30T21:34:48.303Z,96.60
2017-10-30T21:37:23.615Z,96.60
2017-10-30T21:39:59.391Z,96.50
2017-10-30T21:42:36.732Z,96.50
2017-10-30T21:45:15.821Z,96.60
2017-10-30T21:47:53.371Z,96.60
2017-10-30T21:50:32.139Z,96.60
2017-10-30T21:53:10.478Z,96.70
2017-10-30T21:55:47.879Z,96.70
2017-10-30T21:58:24.550Z,96.60
2017-10-30T22:01:04.675Z,96.20
2017-10-30T22:03:42.022Z,96.30
2017-10-30T22:06:17.918Z,96.40
2017-10-30T22:08:55.148Z,96.40
2017-10-30T22:11:33.192Z,96.50
2017-10-30T22:14:10.518Z,96.50
2017-10-30T22:16:49.362Z,96.40
2017-10-30T22:19:25.642Z,96.50
2017-10-30T22:22:04.346Z,96.70
2017-10-30T22:24:41.556Z,96.50
2017-10-30T22:30:03.521Z,96.60
2017-10-30T22:32:40.847Z,96.70
2017-10-30T22:35:18.602Z,96.60
2017-10-30T22:38:01.303Z,96.60
2017-10-30T22:40:39.148Z,96.80
2017-10-30T22:43:19.426Z,96.80
2017-10-30T22:45:58.142Z,96.90
2017-10-30T22:48:37.361Z,96.90
2017-10-30T22:51:17.378Z,96.90
2017-10-30T22:53:53.160Z,97.00
2017-10-30T22:56:33.245Z,96.80
2017-10-30T22:59:12.107Z,96.70
2017-10-30T23:01:49.846Z,96.70
2017-10-30T23:04:26.999Z,96.70
2017-10-30T23:07:04.225Z,96.70
2017-10-30T23:09:46.540Z,96.80
2017-10-30T23:12:26.377Z,96.90
2017-10-30T23:15:04.061Z,96.80
2017-10-30T23:17:43.029Z,96.90
2017-10-30T23:20:21.322Z,96.90
2017-10-30T23:22:57.256Z,96.80
2017-10-30T23:25:37.802Z,97.10
2017-10-30T23:28:15.420Z,96.70
2017-10-30T23:30:54.902Z,96.70
2017-10-30T23:33:33.178Z,96.60
2017-10-30T23:36:10.744Z,96.70
2017-10-30T23:38:46.395Z,96.70
2017-10-30T23:41:23.154Z,96.80
2017-10-30T23:43:59.899Z,97.00
2017-10-30T23:46:38.768Z,97.20
2017-10-30T23:49:15.354Z,97.20
2017-10-30T23:51:52.565Z,97.20
2017-10-30T23:54:36.582Z,97.30
2017-10-30T23:57:22.034Z,97.20
2017-10-30T23:59:57.709Z,97.20
